createdAt,value
2018-06-24T00:00:36.746Z,12.83
2018-06-24T00:01:36.734Z,12.64
2018-06-24T00:02:36.724Z,12.70
2018-06-24T00:03:36.711Z,12.78
2018-06-24T00:04:36.702Z,12.65
2018-06-24T00:05:36.697Z,12.77
2018-06-24T00:06:36.680Z,12.78
2018-06-24T00:07:36.667Z,12.77
2018-06-24T00:08:36.657Z,12.77
2018-06-24T00:09:36.643Z,12.71
2018-06-24T00:10:36.637Z,12.79
2018-06-24T00:11:36.627Z,12.74
2018-06-24T00:12:36.607Z,12.64
2018-06-24T00:13:36.602Z,12.65
2018-06-24T00:14:36.589Z,12.57
2018-06-24T00:15:36.613Z,12.53
2018-06-24T00:16:36.575Z,12.49
2018-06-24T00:17:36.558Z,12.50
2018-06-24T00:18:36.548Z,12.39
2018-06-24T00:19:36.534Z,12.41
2018-06-24T00:20:36.526Z,12.41
2018-06-24T00:21:36.515Z,12.46
2018-06-24T00:22:36.497Z,12.37
2018-06-24T00:23:36.493Z,12.50
2018-06-24T00:24:36.480Z,12.39
2018-06-24T00:25:36.470Z,12.46
2018-06-24T00:26:36.460Z,12.35
2018-06-24T00:27:36.447Z,12.42
2018-06-24T00:28:36.432Z,12.39
2018-06-24T00:29:36.419Z,12.41
2018-06-24T00:30:36.411Z,12.32
2018-06-24T00:31:36.397Z,12.41
2018-06-24T00:32:36.389Z,12.35
2018-06-24T00:33:36.375Z,12.29
2018-06-24T00:34:36.370Z,12.28
2018-06-24T00:35:36.353Z,12.46
2018-06-24T00:36:36.345Z,12.32
2018-06-24T00:37:36.332Z,12.32
2018-06-24T00:38:36.323Z,12.31
2018-06-24T00:39:36.317Z,12.31
2018-06-24T00:40:36.300Z,12.17
2018-06-24T00:41:36.296Z,12.24
2018-06-24T00:42:36.280Z,12.21
2018-06-24T00:43:36.269Z,12.23
2018-06-24T00:44:36.257Z,12.32
2018-06-24T00:45:36.246Z,12.27
2018-06-24T00:46:36.235Z,12.31
2018-06-24T00:47:36.215Z,12.34
2018-06-24T00:48:36.213Z,12.34
2018-06-24T00:49:36.191Z,12.31
2018-06-24T00:50:36.185Z,12.28
2018-06-24T00:51:36.175Z,12.27
2018-06-24T00:52:36.166Z,12.24
2018-06-24T00:53:36.148Z,12.31
2018-06-24T00:54:36.140Z,12.31
2018-06-24T00:55:36.127Z,12.27
2018-06-24T00:56:36.117Z,12.27
2018-06-24T00:57:36.112Z,12.21
2018-06-24T00:58:36.096Z,12.28
2018-06-24T00:59:36.090Z,12.21
2018-06-24T01:00:36.072Z,12.20
2018-06-24T01:01:36.057Z,12.29
2018-06-24T01:02:36.049Z,12.21
2018-06-24T01:03:36.037Z,12.19
2018-06-24T01:04:36.030Z,12.28
2018-06-24T01:05:36.014Z,12.20
2018-06-24T01:06:36.008Z,12.19
2018-06-24T01:07:35.996Z,12.16
2018-06-24T01:08:35.981Z,12.23
2018-06-24T01:09:35.972Z,12.17
2018-06-24T01:10:35.952Z,12.17
2018-06-24T01:11:35.945Z,12.10
2018-06-24T01:12:35.936Z,12.09
2018-06-24T01:13:35.926Z,12.02
2018-06-24T01:14:35.910Z,12.02
2018-06-24T01:15:35.900Z,12.04
2018-06-24T01:16:35.891Z,12.01
2018-06-24T01:17:35.879Z,11.90
2018-06-24T01:18:35.867Z,11.98
2018-06-24T01:19:35.860Z,11.99
2018-06-24T01:20:35.849Z,11.99
2018-06-24T01:21:35.838Z,11.90
2018-06-24T01:22:35.817Z,12.01
2018-06-24T01:23:35.814Z,11.94
2018-06-24T01:24:35.800Z,11.96
2018-06-24T01:25:35.793Z,11.82
2018-06-24T01:26:35.775Z,11.83
2018-06-24T01:27:35.760Z,11.80
2018-06-24T01:28:35.753Z,11.72
2018-06-24T01:29:35.745Z,11.75
2018-06-24T01:30:35.726Z,11.75
2018-06-24T01:31:35.719Z,11.79
2018-06-24T01:32:35.706Z,11.79
2018-06-24T01:33:35.699Z,11.69
2018-06-24T01:34:35.681Z,11.62
2018-06-24T01:35:35.671Z,11.62
2018-06-24T01:36:35.661Z,11.65
2018-06-24T01:37:35.645Z,11.67
2018-06-24T01:38:35.633Z,11.67
2018-06-24T01:39:35.625Z,11.57
2018-06-24T01:40:35.613Z,11.62
2018-06-24T01:41:35.604Z,11.58
2018-06-24T01:42:35.592Z,11.60
2018-06-24T01:43:35.580Z,11.55
2018-06-24T01:44:35.566Z,11.57
2018-06-24T01:45:35.560Z,11.60
2018-06-24T01:46:35.545Z,11.60
2018-06-24T01:47:35.603Z,11.54
2018-06-24T01:48:35.519Z,11.55
2018-06-24T01:49:35.512Z,11.55
2018-06-24T01:50:35.501Z,11.54
2018-06-24T01:51:35.486Z,11.58
2018-06-24T01:52:35.474Z,11.55
2018-06-24T01:53:35.468Z,11.62
2018-06-24T01:54:35.456Z,11.64
2018-06-24T01:55:35.444Z,11.64
2018-06-24T01:56:35.426Z,11.61
2018-06-24T01:57:35.425Z,11.65
2018-06-24T01:58:35.402Z,11.60
2018-06-24T01:59:35.395Z,11.60
2018-06-24T02:00:35.382Z,11.57
2018-06-24T02:01:35.372Z,11.57
2018-06-24T02:02:35.356Z,11.65
2018-06-24T02:03:35.347Z,11.58
2018-06-24T02:04:35.334Z,11.52
2018-06-24T02:05:35.322Z,11.55
2018-06-24T02:06:35.308Z,11.43
2018-06-24T02:07:35.302Z,11.39
2018-06-24T02:08:35.287Z,11.46
2018-06-24T02:09:35.274Z,11.47
2018-06-24T02:10:35.268Z,11.47
2018-06-24T02:11:35.252Z,11.44
2018-06-24T02:12:35.242Z,11.42
2018-06-24T02:13:35.231Z,11.37
2018-06-24T02:14:35.216Z,11.42
2018-06-24T02:15:35.207Z,11.42
2018-06-24T02:16:35.196Z,11.36
2018-06-24T02:17:35.181Z,11.36
2018-06-24T02:18:35.169Z,11.39
2018-06-24T02:19:35.153Z,11.35
2018-06-24T02:20:35.151Z,11.37
2018-06-24T02:21:35.139Z,11.36
2018-06-24T02:22:35.124Z,11.43
2018-06-24T02:23:35.112Z,11.39
2018-06-24T02:24:35.102Z,11.36
2018-06-24T02:25:35.088Z,11.40
2018-06-24T02:26:35.076Z,11.36
2018-06-24T02:27:35.068Z,11.37
2018-06-24T02:28:35.050Z,11.39
2018-06-24T02:29:35.045Z,11.36
2018-06-24T02:30:35.031Z,11.33
2018-06-24T02:31:35.019Z,11.28
2018-06-24T02:32:35.008Z,11.28
2018-06-24T02:33:34.992Z,11.27
2018-06-24T02:34:34.986Z,11.25
2018-06-24T02:35:34.971Z,11.19
2018-06-24T02:36:34.965Z,11.19
2018-06-24T02:37:34.947Z,11.11
2018-06-24T02:38:34.939Z,11.14
2018-06-24T02:39:34.921Z,11.19
2018-06-24T02:40:34.917Z,11.17
2018-06-24T02:41:34.899Z,11.17
2018-06-24T02:42:34.897Z,11.21
2018-06-24T02:43:34.875Z,11.25
2018-06-24T02:44:34.867Z,11.28
2018-06-24T02:45:34.852Z,11.25
2018-06-24T02:46:34.836Z,11.29
2018-06-24T02:47:34.828Z,11.27
2018-06-24T02:48:34.816Z,11.24
2018-06-24T02:49:34.802Z,11.25
2018-06-24T02:50:34.790Z,11.28
2018-06-24T02:51:34.785Z,11.24
2018-06-24T02:52:34.764Z,11.19
2018-06-24T02:53:34.802Z,11.32
2018-06-24T02:54:34.741Z,11.19
2018-06-24T02:55:34.737Z,11.15
2018-06-24T02:56:34.721Z,11.14
2018-06-24T02:57:34.709Z,11.15
2018-06-24T02:58:34.691Z,11.11
2018-06-24T02:59:34.687Z,11.14
2018-06-24T03:00:34.677Z,11.24
2018-06-24T03:01:34.660Z,11.11
2018-06-24T03:02:34.650Z,11.11
2018-06-24T03:03:34.636Z,11.17
2018-06-24T03:04:34.624Z,11.18
2018-06-24T03:05:34.612Z,11.09
2018-06-24T03:06:34.605Z,11.17
2018-06-24T03:07:34.594Z,11.06
2018-06-24T03:08:34.578Z,11.04
2018-06-24T03:09:34.565Z,11.10
2018-06-24T03:10:34.554Z,11.11
2018-06-24T03:11:34.542Z,11.14
2018-06-24T03:12:34.528Z,11.14
2018-06-24T03:13:34.514Z,11.14
2018-06-24T03:14:34.504Z,11.17
2018-06-24T03:15:34.497Z,11.17
2018-06-24T03:16:34.482Z,11.22
2018-06-24T03:17:34.473Z,11.14
2018-06-24T03:18:34.461Z,11.17
2018-06-24T03:19:34.445Z,11.14
2018-06-24T03:20:34.439Z,11.15
2018-06-24T03:21:34.420Z,11.03
2018-06-24T03:22:34.412Z,11.04
2018-06-24T03:23:34.399Z,11.00
2018-06-24T03:24:34.388Z,10.97
2018-06-24T03:25:34.374Z,11.02
2018-06-24T03:26:34.359Z,10.97
2018-06-24T03:27:34.345Z,10.96
2018-06-24T03:28:34.336Z,11.02
2018-06-24T03:29:34.325Z,10.97
2018-06-24T03:30:34.312Z,11.04
2018-06-24T03:31:34.299Z,11.04
2018-06-24T03:32:34.289Z,11.00
2018-06-24T03:33:34.279Z,11.03
2018-06-24T03:34:34.267Z,11.04
2018-06-24T03:35:34.253Z,11.00
2018-06-24T03:36:34.241Z,11.07
2018-06-24T03:37:34.228Z,11.07
2018-06-24T03:38:34.212Z,11.07
2018-06-24T03:39:34.203Z,11.06
2018-06-24T03:40:34.194Z,11.06
2018-06-24T03:41:34.181Z,11.11
2018-06-24T03:42:34.171Z,11.04
2018-06-24T03:43:34.153Z,11.03
2018-06-24T03:44:34.142Z,11.03
2018-06-24T03:45:34.137Z,11.02
2018-06-24T03:46:34.116Z,11.03
2018-06-24T03:47:34.113Z,11.00
2018-06-24T03:48:34.095Z,11.03
2018-06-24T03:49:34.088Z,11.09
2018-06-24T03:50:34.072Z,11.07
2018-06-24T03:51:34.066Z,11.11
2018-06-24T03:52:34.054Z,11.10
2018-06-24T03:53:34.038Z,11.07
2018-06-24T03:54:34.020Z,11.10
2018-06-24T03:55:34.012Z,11.11
2018-06-24T03:56:34.006Z,11.15
2018-06-24T03:57:33.989Z,11.15
2018-06-24T03:58:33.975Z,11.18
2018-06-24T03:59:33.960Z,11.15
2018-06-24T04:00:33.957Z,11.27
2018-06-24T04:01:33.943Z,11.28
2018-06-24T04:02:33.933Z,11.27
2018-06-24T04:03:33.911Z,11.32
2018-06-24T04:04:33.900Z,11.29
2018-06-24T04:05:33.893Z,11.28
2018-06-24T04:06:33.878Z,11.28
2018-06-24T04:07:33.866Z,11.25
2018-06-24T04:08:33.854Z,11.27
2018-06-24T04:09:33.843Z,11.29
2018-06-24T04:10:33.833Z,11.27
2018-06-24T04:11:33.819Z,11.33
2018-06-24T04:12:33.807Z,11.39
2018-06-24T04:13:33.798Z,11.36
2018-06-24T04:14:33.785Z,11.39
2018-06-24T04:15:33.768Z,11.40
2018-06-24T04:16:33.763Z,11.39
2018-06-24T04:17:33.745Z,11.52
2018-06-24T04:18:33.730Z,11.51
2018-06-24T04:19:33.726Z,11.55
2018-06-24T04:20:33.712Z,11.51
2018-06-24T04:21:33.699Z,11.58
2018-06-24T04:22:33.687Z,11.52
2018-06-24T04:23:33.677Z,11.55
2018-06-24T04:24:33.665Z,11.52
2018-06-24T04:25:33.650Z,11.61
2018-06-24T04:26:33.644Z,11.62
2018-06-24T04:27:33.631Z,11.65
2018-06-24T04:28:33.613Z,11.65
2018-06-24T04:29:33.603Z,11.64
2018-06-24T04:30:33.590Z,11.58
2018-06-24T04:31:33.571Z,11.70
2018-06-24T04:32:33.566Z,11.78
2018-06-24T04:33:33.551Z,11.82
2018-06-24T04:34:33.542Z,11.79
2018-06-24T04:35:33.531Z,11.82
2018-06-24T04:36:33.512Z,11.86
2018-06-24T04:37:33.511Z,11.91
2018-06-24T04:38:33.494Z,11.94
2018-06-24T04:39:33.511Z,11.98
2018-06-24T04:40:33.478Z,12.04
2018-06-24T04:41:33.458Z,12.02
2018-06-24T04:42:33.444Z,12.02
2018-06-24T04:43:33.434Z,12.04
2018-06-24T04:44:33.426Z,11.99
2018-06-24T04:45:33.414Z,11.98
2018-06-24T04:46:33.405Z,11.99
2018-06-24T04:47:33.387Z,12.01
2018-06-24T04:48:33.377Z,11.99
2018-06-24T04:49:33.361Z,12.09
2018-06-24T04:50:33.351Z,12.02
2018-06-24T04:51:33.378Z,12.04
2018-06-24T04:52:33.331Z,12.07
2018-06-24T04:53:33.316Z,12.01
2018-06-24T04:54:33.306Z,12.05
2018-06-24T04:55:33.294Z,12.07
2018-06-24T04:56:33.278Z,12.14
2018-06-24T04:57:33.276Z,12.05
2018-06-24T04:58:33.254Z,12.10
2018-06-24T04:59:33.248Z,12.05
2018-06-24T05:00:33.235Z,12.04
2018-06-24T05:01:33.224Z,12.09
2018-06-24T05:02:33.215Z,12.13
2018-06-24T05:03:33.207Z,12.09
2018-06-24T05:04:33.191Z,12.05
2018-06-24T05:05:33.176Z,12.09
2018-06-24T05:06:33.221Z,12.01
2018-06-24T05:07:33.154Z,12.07
2018-06-24T05:08:33.145Z,12.04
2018-06-24T05:09:33.131Z,12.04
2018-06-24T05:10:33.120Z,12.09
2018-06-24T05:11:33.106Z,12.07
2018-06-24T05:12:33.094Z,11.96
2018-06-24T05:13:33.084Z,12.05
2018-06-24T05:14:33.070Z,12.02
2018-06-24T05:15:33.064Z,12.05
2018-06-24T05:16:33.044Z,12.09
2018-06-24T05:17:33.038Z,12.09
2018-06-24T05:18:33.030Z,12.10
2018-06-24T05:19:33.007Z,12.12
2018-06-24T05:20:32.999Z,12.09
2018-06-24T05:21:32.992Z,12.05
2018-06-24T05:22:32.980Z,12.17
2018-06-24T05:23:32.969Z,12.16
2018-06-24T05:24:32.957Z,12.19
2018-06-24T05:25:32.938Z,12.13
2018-06-24T05:26:32.930Z,12.16
2018-06-24T05:27:32.955Z,12.21
2018-06-24T05:28:32.908Z,12.20
2018-06-24T05:29:32.894Z,12.17
2018-06-24T05:30:32.882Z,12.27
2018-06-24T05:31:32.871Z,12.29
2018-06-24T05:32:32.858Z,12.27
2018-06-24T05:33:32.853Z,12.29
2018-06-24T05:34:32.837Z,12.29
2018-06-24T05:35:32.825Z,12.31
2018-06-24T05:36:32.819Z,12.29
2018-06-24T05:37:32.805Z,12.38
2018-06-24T05:38:32.793Z,12.31
2018-06-24T05:39:32.779Z,12.31
2018-06-24T05:40:32.767Z,12.38
2018-06-24T05:41:32.754Z,12.42
2018-06-24T05:42:32.744Z,12.42
2018-06-24T05:43:32.730Z,12.50
2018-06-24T05:44:32.722Z,12.52
2018-06-24T05:45:32.705Z,12.49
2018-06-24T05:46:32.698Z,12.56
2018-06-24T05:47:32.688Z,12.41
2018-06-24T05:48:32.675Z,12.46
2018-06-24T05:49:32.663Z,12.54
2018-06-24T05:50:32.646Z,12.54
2018-06-24T05:51:32.644Z,12.57
2018-06-24T05:52:32.630Z,12.57
2018-06-24T05:53:32.616Z,12.45
2018-06-24T05:54:32.604Z,12.41
2018-06-24T05:55:32.596Z,12.46
2018-06-24T05:56:32.586Z,12.42
2018-06-24T05:57:32.579Z,12.52
2018-06-24T05:58:32.563Z,12.49
2018-06-24T05:59:32.552Z,12.49
2018-06-24T06:00:32.537Z,12.57
2018-06-24T06:01:32.525Z,12.77
2018-06-24T06:02:32.515Z,12.83
2018-06-24T06:03:32.503Z,12.87
2018-06-24T06:04:32.489Z,13.07
2018-06-24T06:05:32.472Z,13.08
2018-06-24T06:06:32.468Z,13.26
2018-06-24T06:07:32.456Z,13.33
2018-06-24T06:08:32.447Z,13.39
2018-06-24T06:09:32.436Z,13.52
2018-06-24T06:10:32.423Z,13.52
2018-06-24T06:11:32.413Z,13.66
2018-06-24T06:12:32.400Z,13.77
2018-06-24T06:13:32.450Z,13.85
2018-06-24T06:14:32.378Z,13.84
2018-06-24T06:15:32.369Z,14.00
2018-06-24T06:16:32.356Z,14.03
2018-06-24T06:17:32.347Z,14.09
2018-06-24T06:18:32.333Z,14.25
2018-06-24T06:19:32.320Z,14.22
2018-06-24T06:20:32.314Z,14.27
2018-06-24T06:21:32.294Z,14.37
2018-06-24T06:22:32.287Z,14.45
2018-06-24T06:23:32.285Z,14.43
2018-06-24T06:24:32.267Z,14.54
2018-06-24T06:25:32.263Z,14.60
2018-06-24T06:26:32.248Z,14.70
2018-06-24T06:27:32.234Z,14.72
2018-06-24T06:28:32.228Z,14.77
2018-06-24T06:29:32.216Z,14.73
2018-06-24T06:30:32.204Z,14.68
2018-06-24T06:31:32.190Z,14.68
2018-06-24T06:32:32.181Z,14.75
2018-06-24T06:33:32.167Z,14.73
2018-06-24T06:34:32.163Z,14.80
2018-06-24T06:35:32.147Z,14.81
2018-06-24T06:36:32.134Z,14.83
2018-06-24T06:37:32.128Z,14.78
2018-06-24T06:38:32.116Z,14.80
2018-06-24T06:39:32.105Z,14.94
2018-06-24T06:40:32.097Z,15.01
2018-06-24T06:41:32.086Z,15.01
2018-06-24T06:42:32.075Z,15.03
2018-06-24T06:43:32.066Z,15.13
2018-06-24T06:44:32.054Z,15.20
2018-06-24T06:45:32.210Z,15.17
2018-06-24T06:46:32.032Z,15.23
2018-06-24T06:47:32.021Z,15.29
2018-06-24T06:48:32.015Z,15.34
2018-06-24T06:49:31.997Z,15.36
2018-06-24T06:50:31.988Z,15.49
2018-06-24T06:51:31.979Z,15.47
2018-06-24T06:52:31.974Z,15.50
2018-06-24T06:53:31.955Z,15.50
2018-06-24T06:54:31.949Z,15.53
2018-06-24T06:55:31.934Z,15.60
2018-06-24T06:56:31.931Z,15.59
2018-06-24T06:57:31.918Z,15.54
2018-06-24T06:58:31.911Z,15.67
2018-06-24T06:59:31.896Z,15.62
2018-06-24T07:00:31.883Z,15.74
2018-06-24T07:01:31.878Z,15.75
2018-06-24T07:02:31.870Z,15.78
2018-06-24T07:03:32.024Z,15.76
2018-06-24T07:04:31.854Z,15.90
2018-06-24T07:05:31.841Z,15.93
2018-06-24T07:06:31.827Z,15.93
2018-06-24T07:07:31.817Z,15.93
2018-06-24T07:08:31.807Z,16.05
2018-06-24T07:09:31.799Z,16.07
2018-06-24T07:10:31.791Z,15.94
2018-06-24T07:11:31.781Z,16.00
2018-06-24T07:12:31.767Z,15.87
2018-06-24T07:13:31.757Z,15.89
2018-06-24T07:14:31.748Z,15.89
2018-06-24T07:15:31.737Z,15.87
2018-06-24T07:16:31.726Z,15.76
2018-06-24T07:17:31.716Z,15.80
2018-06-24T07:18:31.710Z,15.83
2018-06-24T07:19:31.701Z,15.78
2018-06-24T07:20:31.692Z,15.76
2018-06-24T07:21:31.713Z,15.83
2018-06-24T07:22:31.668Z,15.72
2018-06-24T07:23:31.655Z,15.76
2018-06-24T07:24:31.650Z,15.80
2018-06-24T07:25:31.635Z,15.87
2018-06-24T07:26:31.629Z,15.87
2018-06-24T07:27:31.619Z,15.86
2018-06-24T07:28:31.612Z,15.84
2018-06-24T07:29:31.945Z,15.90
2018-06-24T07:30:31.588Z,15.87
2018-06-24T07:31:31.579Z,15.93
2018-06-24T07:32:31.567Z,15.96
2018-06-24T07:33:31.600Z,15.96
2018-06-24T07:34:31.552Z,15.93
2018-06-24T07:35:31.538Z,16.02
2018-06-24T07:36:31.528Z,15.94
2018-06-24T07:37:31.525Z,16.02
2018-06-24T07:38:31.561Z,15.93
2018-06-24T07:39:31.494Z,16.01
2018-06-24T07:40:31.490Z,16.05
2018-06-24T07:41:31.479Z,16.02
2018-06-24T07:42:31.469Z,16.02
2018-06-24T07:43:31.463Z,15.97
2018-06-24T07:44:31.449Z,16.02
2018-06-24T07:45:31.443Z,16.08
2018-06-24T07:46:31.434Z,16.12
2018-06-24T07:47:31.419Z,16.11
2018-06-24T07:48:31.411Z,16.20
2018-06-24T07:49:31.402Z,16.05
2018-06-24T07:50:31.394Z,16.07
2018-06-24T07:51:31.378Z,16.20
2018-06-24T07:52:31.370Z,16.08
2018-06-24T07:53:31.362Z,16.08
2018-06-24T07:54:31.357Z,16.20
2018-06-24T07:55:31.339Z,16.17
2018-06-24T07:56:31.339Z,16.20
2018-06-24T07:57:31.522Z,16.27
2018-06-24T07:58:31.312Z,16.25
2018-06-24T07:59:31.304Z,16.21
2018-06-24T08:00:31.293Z,16.23
2018-06-24T08:01:31.284Z,16.30
2018-06-24T08:02:31.271Z,16.45
2018-06-24T08:03:31.266Z,16.52
2018-06-24T08:04:31.254Z,16.73
2018-06-24T08:05:31.249Z,16.81
2018-06-24T08:06:31.238Z,16.83
2018-06-24T08:07:31.227Z,16.88
2018-06-24T08:08:31.215Z,16.93
2018-06-24T08:09:31.209Z,16.88
2018-06-24T08:10:31.200Z,16.81
2018-06-24T08:11:31.191Z,16.82
2018-06-24T08:12:31.174Z,16.85
2018-06-24T08:13:31.166Z,16.63
2018-06-24T08:14:31.158Z,16.63
2018-06-24T08:15:31.148Z,16.68
2018-06-24T08:16:31.145Z,16.63
2018-06-24T08:17:31.128Z,16.79
2018-06-24T08:18:31.121Z,16.83
2018-06-24T08:19:31.116Z,16.86
2018-06-24T08:20:31.099Z,16.98
2018-06-24T08:21:31.090Z,17.08
2018-06-24T08:22:31.083Z,17.11
2018-06-24T08:23:31.076Z,17.21
2018-06-24T08:24:31.057Z,17.12
2018-06-24T08:25:31.051Z,17.19
2018-06-24T08:26:31.041Z,17.25
2018-06-24T08:27:31.037Z,17.30
2018-06-24T08:28:31.025Z,17.26
2018-06-24T08:29:31.015Z,17.30
2018-06-24T08:30:31.006Z,17.40
2018-06-24T08:31:31.043Z,17.33
2018-06-24T08:32:30.990Z,17.48
2018-06-24T08:33:30.975Z,17.68
2018-06-24T08:34:30.971Z,17.71
2018-06-24T08:35:30.961Z,17.68
2018-06-24T08:36:30.957Z,17.59
2018-06-24T08:37:30.946Z,17.58
2018-06-24T08:38:30.931Z,17.51
2018-06-24T08:39:30.927Z,17.59
2018-06-24T08:40:30.915Z,17.52
2018-06-24T08:41:30.908Z,17.64
2018-06-24T08:42:30.901Z,17.77
2018-06-24T08:43:30.889Z,17.75
2018-06-24T08:44:30.881Z,17.81
2018-06-24T08:45:30.872Z,17.78
2018-06-24T08:46:30.863Z,17.63
2018-06-24T08:47:30.848Z,17.63
2018-06-24T08:48:30.842Z,17.68
2018-06-24T08:49:30.835Z,17.81
2018-06-24T08:50:30.825Z,17.84
2018-06-24T08:51:30.815Z,17.93
2018-06-24T08:52:30.814Z,17.78
2018-06-24T08:53:30.802Z,17.93
2018-06-24T08:54:30.792Z,18.05
2018-06-24T08:55:30.780Z,18.00
2018-06-24T08:56:30.771Z,18.18
2018-06-24T08:57:30.762Z,18.12
2018-06-24T08:58:30.751Z,18.00
2018-06-24T08:59:30.746Z,17.95
2018-06-24T09:00:30.780Z,17.95
2018-06-24T09:01:30.725Z,17.96
2018-06-24T09:02:30.724Z,17.95
2018-06-24T09:03:30.707Z,17.97
2018-06-24T09:04:30.705Z,17.90
2018-06-24T09:05:30.693Z,17.86
2018-06-24T09:06:30.683Z,17.97
2018-06-24T09:07:30.674Z,18.11
2018-06-24T09:08:30.664Z,18.20
2018-06-24T09:09:30.653Z,18.15
2018-06-24T09:10:30.648Z,18.23
2018-06-24T09:11:30.636Z,18.33
2018-06-24T09:12:30.630Z,18.21
2018-06-24T09:13:30.622Z,18.08
2018-06-24T09:14:30.614Z,18.18
2018-06-24T09:15:30.659Z,18.27
2018-06-24T09:16:30.596Z,18.32
2018-06-24T09:17:30.581Z,18.48
2018-06-24T09:18:30.575Z,18.52
2018-06-24T09:19:30.570Z,18.54
2018-06-24T09:20:30.561Z,18.51
2018-06-24T09:21:30.556Z,18.44
2018-06-24T09:22:30.539Z,18.50
2018-06-24T09:23:30.535Z,18.50
2018-06-24T09:24:30.525Z,18.42
2018-06-24T09:25:30.514Z,18.33
2018-06-24T09:26:30.513Z,18.29
2018-06-24T09:27:30.494Z,18.45
2018-06-24T09:28:30.492Z,18.41
2018-06-24T09:29:30.481Z,18.41
2018-06-24T09:30:30.479Z,18.44
2018-06-24T09:31:30.467Z,18.44
2018-06-24T09:32:30.455Z,18.55
2018-06-24T09:33:30.453Z,18.55
2018-06-24T09:34:30.440Z,18.51
2018-06-24T09:35:30.430Z,18.69
2018-06-24T09:36:30.419Z,18.75
2018-06-24T09:37:30.416Z,18.85
2018-06-24T09:38:30.406Z,18.85
2018-06-24T09:39:30.401Z,18.92
2018-06-24T09:40:30.392Z,18.95
2018-06-24T09:41:30.377Z,19.02
2018-06-24T09:42:30.371Z,18.91
2018-06-24T09:43:30.359Z,19.13
2018-06-24T09:44:30.355Z,19.08
2018-06-24T09:45:30.347Z,19.13
2018-06-24T09:46:30.335Z,19.11
2018-06-24T09:47:30.331Z,19.25
2018-06-24T09:48:30.319Z,19.22
2018-06-24T09:49:30.316Z,19.14
2018-06-24T09:50:30.302Z,19.18
2018-06-24T09:51:30.292Z,19.13
2018-06-24T09:52:30.294Z,19.07
2018-06-24T09:53:30.284Z,19.16
2018-06-24T09:54:30.270Z,19.16
2018-06-24T09:55:30.264Z,19.10
2018-06-24T09:56:30.254Z,19.23
2018-06-24T09:57:30.253Z,19.36
2018-06-24T09:58:30.241Z,19.33
2018-06-24T09:59:30.228Z,19.31
2018-06-24T10:00:30.227Z,19.46
2018-06-24T10:01:30.216Z,19.39
2018-06-24T10:02:30.204Z,19.51
2018-06-24T10:03:30.199Z,19.48
2018-06-24T10:04:30.184Z,19.40
2018-06-24T10:05:30.178Z,19.36
2018-06-24T10:06:30.179Z,19.26
2018-06-24T10:07:30.165Z,19.25
2018-06-24T10:08:30.157Z,19.31
2018-06-24T10:09:30.149Z,19.23
2018-06-24T10:10:30.143Z,19.18
2018-06-24T10:11:30.131Z,19.19
2018-06-24T10:12:30.130Z,19.18
2018-06-24T10:13:30.118Z,19.25
2018-06-24T10:14:30.113Z,19.46
2018-06-24T10:15:30.104Z,19.50
2018-06-24T10:16:30.092Z,19.65
2018-06-24T10:17:30.091Z,19.58
2018-06-24T10:18:30.077Z,19.55
2018-06-24T10:19:30.070Z,19.65
2018-06-24T10:20:30.067Z,19.65
2018-06-24T10:21:30.051Z,19.48
2018-06-24T10:22:30.048Z,19.58
2018-06-24T10:23:30.037Z,19.54
2018-06-24T10:24:30.030Z,19.43
2018-06-24T10:25:30.022Z,19.37
2018-06-24T10:26:30.008Z,19.23
2018-06-24T10:27:30.001Z,19.22
2018-06-24T10:28:29.997Z,19.22
2018-06-24T10:29:30.007Z,19.28
2018-06-24T10:30:29.980Z,19.28
2018-06-24T10:31:29.968Z,19.23
2018-06-24T10:32:29.965Z,19.23
2018-06-24T10:33:29.954Z,19.37
2018-06-24T10:34:29.951Z,19.37
2018-06-24T10:35:29.937Z,19.39
2018-06-24T10:36:29.928Z,19.41
2018-06-24T10:37:29.920Z,19.47
2018-06-24T10:38:29.914Z,19.41
2018-06-24T10:39:29.906Z,19.50
2018-06-24T10:40:29.906Z,19.61
2018-06-24T10:41:29.894Z,19.66
2018-06-24T10:42:29.884Z,19.66
2018-06-24T10:43:29.880Z,19.80
2018-06-24T10:44:29.868Z,19.69
2018-06-24T10:45:29.859Z,19.68
2018-06-24T10:46:29.852Z,19.65
2018-06-24T10:47:29.839Z,19.62
2018-06-24T10:48:29.838Z,19.48
2018-06-24T10:49:29.829Z,19.51
2018-06-24T10:50:29.821Z,19.51
2018-06-24T10:51:29.811Z,19.48
2018-06-24T10:52:29.801Z,19.39
2018-06-24T10:53:29.797Z,19.33
2018-06-24T10:54:29.790Z,19.33
2018-06-24T10:55:29.778Z,19.25
2018-06-24T10:56:29.774Z,19.29
2018-06-24T10:57:29.772Z,19.25
2018-06-24T10:58:29.756Z,19.11
2018-06-24T10:59:29.741Z,19.13
2018-06-24T11:00:29.736Z,19.02
2018-06-24T11:01:29.729Z,19.02
2018-06-24T11:02:29.720Z,18.98
2018-06-24T11:03:29.713Z,18.94
2018-06-24T11:04:29.708Z,18.99
2018-06-24T11:05:29.708Z,19.02
2018-06-24T11:06:29.690Z,18.95
2018-06-24T11:07:29.680Z,18.99
2018-06-24T11:08:29.672Z,18.99
2018-06-24T11:09:29.667Z,18.94
2018-06-24T11:10:29.662Z,19.00
2018-06-24T11:11:29.651Z,18.91
2018-06-24T11:12:29.646Z,18.90
2018-06-24T11:13:29.629Z,18.91
2018-06-24T11:14:29.625Z,18.92
2018-06-24T11:15:29.616Z,18.90
2018-06-24T11:16:29.660Z,18.85
2018-06-24T11:17:29.601Z,18.91
2018-06-24T11:18:29.591Z,18.91
2018-06-24T11:19:29.577Z,18.95
2018-06-24T11:20:29.578Z,18.90
2018-06-24T11:21:29.561Z,18.92
2018-06-24T11:22:29.555Z,19.11
2018-06-24T11:23:29.550Z,19.14
2018-06-24T11:24:29.540Z,19.40
2018-06-24T11:25:29.528Z,19.48
2018-06-24T11:26:29.525Z,19.41
2018-06-24T11:27:29.511Z,19.54
2018-06-24T11:28:29.505Z,19.50
2018-06-24T11:29:29.507Z,19.61
2018-06-24T11:30:29.491Z,19.61
2018-06-24T11:31:29.481Z,19.47
2018-06-24T11:32:29.472Z,19.46
2018-06-24T11:33:29.488Z,19.40
2018-06-24T11:34:29.455Z,19.54
2018-06-24T11:35:29.451Z,19.61
2018-06-24T11:36:29.445Z,19.68
2018-06-24T11:37:29.437Z,19.62
2018-06-24T11:38:29.422Z,19.68
2018-06-24T11:39:29.416Z,19.59
2018-06-24T11:40:29.405Z,19.58
2018-06-24T11:41:29.399Z,19.61
2018-06-24T11:42:29.394Z,19.51
2018-06-24T11:43:29.386Z,19.43
2018-06-24T11:44:29.377Z,19.40
2018-06-24T11:45:29.372Z,19.33
2018-06-24T11:46:29.358Z,19.22
2018-06-24T11:47:29.353Z,19.21
2018-06-24T11:48:29.346Z,19.10
2018-06-24T11:49:29.337Z,19.13
2018-06-24T11:50:29.329Z,19.04
2018-06-24T11:51:29.319Z,18.81
2018-06-24T11:52:29.313Z,18.88
2018-06-24T11:53:29.305Z,18.80
2018-06-24T11:54:29.297Z,18.73
2018-06-24T11:55:29.283Z,18.78
2018-06-24T11:56:29.281Z,18.70
2018-06-24T11:57:29.272Z,18.57
2018-06-24T11:58:29.266Z,18.50
2018-06-24T11:59:29.254Z,18.47
2018-06-24T12:00:29.244Z,18.44
2018-06-24T12:01:29.236Z,18.41
2018-06-24T12:02:29.240Z,18.39
2018-06-24T12:03:29.228Z,18.27
2018-06-24T12:04:29.214Z,18.30
2018-06-24T12:05:29.203Z,18.26
2018-06-24T12:06:29.197Z,18.26
2018-06-24T12:07:29.189Z,18.27
2018-06-24T12:08:29.184Z,18.27
2018-06-24T12:09:29.174Z,18.26
2018-06-24T12:10:29.175Z,18.29
2018-06-24T12:11:29.158Z,18.29
2018-06-24T12:12:29.148Z,18.33
2018-06-24T12:13:29.139Z,18.29
2018-06-24T12:14:29.127Z,18.32
2018-06-24T12:15:29.119Z,18.41
2018-06-24T12:16:29.113Z,18.39
2018-06-24T12:17:29.108Z,18.30
2018-06-24T12:18:29.093Z,18.37
2018-06-24T12:19:29.083Z,18.32
2018-06-24T12:20:29.075Z,18.37
2018-06-24T12:21:29.070Z,18.41
2018-06-24T12:22:29.058Z,18.35
2018-06-24T12:23:29.050Z,18.42
2018-06-24T12:24:29.043Z,18.44
2018-06-24T12:25:29.034Z,18.42
2018-06-24T12:26:29.024Z,18.47
2018-06-24T12:27:29.022Z,18.37
2018-06-24T12:28:29.010Z,18.44
2018-06-24T12:29:28.995Z,18.44
2018-06-24T12:30:28.985Z,18.36
2018-06-24T12:31:28.983Z,18.42
2018-06-24T12:32:28.974Z,18.39
2018-06-24T12:33:28.967Z,18.39
2018-06-24T12:34:28.953Z,18.37
2018-06-24T12:35:28.945Z,18.50
2018-06-24T12:36:28.960Z,18.54
2018-06-24T12:37:28.963Z,18.50
2018-06-24T12:38:28.922Z,18.55
2018-06-24T12:39:28.912Z,18.60
2018-06-24T12:40:28.906Z,18.60
2018-06-24T12:41:28.894Z,18.47
2018-06-24T12:42:28.888Z,18.48
2018-06-24T12:43:28.884Z,18.57
2018-06-24T12:44:28.872Z,18.47
2018-06-24T12:45:28.861Z,18.42
2018-06-24T12:46:28.854Z,18.39
2018-06-24T12:47:28.841Z,18.41
2018-06-24T12:48:28.832Z,18.39
2018-06-24T12:49:28.823Z,18.44
2018-06-24T12:50:28.818Z,18.41
2018-06-24T12:51:28.809Z,18.41
2018-06-24T12:52:28.797Z,18.44